Time,TemperatureF,DewpointF,PressureIn,WindDirection,WindDirectionDegrees,WindSpeedMPH,WindSpeedGustMPH,Humidity,HourlyPrecipIn,Conditions,Clouds,dailyrainin,SolarRadiationWatts/m^2,SoftwareType,DateUTC
2013-01-18 00:00:00,34.7,29.7,30.00,WNW,296,2.0,5.0,82,0.00,CLR,,0.00,0.0,WeatherDisplay:10.37,2013-01-18 05:00:00,
2013-01-18 00:01:00,34.6,29.7,30.00,WNW,299,3.5,3.5,82,0.00,CLR,,0.00,0.0,WeatherDisplay:10.37,2013-01-18 05:01:00,
2013-01-18 00:02:00,34.6,29.4,30.00,NW,309,3.5,3.5,81,0.00,CLR,,0.00,0.0,WeatherDisplay:10.37,2013-01-18 05:02:00,
2013-01-18 00:04:00,34.5,29.3,30.00,NW,312,3.5,3.5,81,0.00,CLR,,0.00,0.0,WeatherDisplay:10.37,2013-01-18 05:04:00,
2013-01-18 00:09:00,34.5,29.3,29.99,NW,304,3.5,3.5,81,0.00,CLR,,0.00,0.0,WeatherDisplay:10.37,2013-01-18 05:09:00,
2013-01-18 00:14:00,34.6,29.4,29.99,WNW,296,4.6,4.6,81,0.00,CLR,,0.00,0.0,WeatherDisplay:10.37,2013-01-18 05:14:00,
2013-01-18 00:19:00,34.7,29.2,30.00,WNW,294,3.5,3.5,80,0.00,CLR,,0.00,0.0,WeatherDisplay:10.37,2013-01-18 05:19:00,
2013-01-18 00:24:00,34.8,29.3,30.00,WNW,299,3.5,3.5,80,0.00,CLR,,0.00,0.0,WeatherDisplay:10.37,2013-01-18 05:24:00,
2013-01-18 00:29:00,34.7,29.2,30.01,NW,311,3.5,3.5,80,0.00,CLR,,0.00,0.0,WeatherDisplay:10.37,2013-01-18 05:29:00,
2013-01-18 00:34:00,34.6,29.1,30.00,WNW,303,3.5,3.5,80,0.00,CLR,,0.00,0.0,WeatherDisplay:10.37,2013-01-18 05:34:00,
2013-01-18 00:39:00,34.5,29.3,30.02,WNW,298,0.0,0.0,81,0.00,CLR,,0.00,0.0,WeatherDisplay:10.37,2013-01-18 05:39:00,
2013-01-18 00:44:00,34.4,28.9,30.03,West,274,2.3,2.3,80,0.00,CLR,,0.00,0.0,WeatherDisplay:10.37,2013-01-18 05:44:00,
2013-01-18 00:49:00,34.5,29.0,30.02,WNW,288,5.0,5.0,80,0.00,CLR,,0.00,0.0,WeatherDisplay:10.37,2013-01-18 05:49:00,
2013-01-18 00:54:00,34.6,29.1,30.01,WNW,301,5.8,5.8,80,0.00,CLR,,0.00,0.0,WeatherDisplay:10.37,2013-01-18 05:54:00,
2013-01-18 00:59:00,34.6,29.1,30.02,WNW,288,5.0,5.0,80,0.00,CLR,,0.00,0.0,WeatherDisplay:10.37,2013-01-18 05:59:00,
2013-01-18 01:04:00,34.6,28.8,30.02,WNW,300,4.6,4.6,79,0.00,CLR,,0.00,0.0,WeatherDisplay:10.37,2013-01-18 06:04:00,
2013-01-18 01:09:00,34.7,28.9,30.03,NW,313,5.8,6.4,79,0.00,CLR,,0.00,0.0,WeatherDisplay:10.37,2013-01-18 06:09:00,
2013-01-18 01:14:00,34.9,28.7,30.04,WNW,292,8.1,8.1,78,0.00,CLR,,0.00,0.0,WeatherDisplay:10.37,2013-01-18 06:14:00,
2013-01-18 01:19:00,35.0,28.5,30.04,WNW,294,6.9,6.9,77,0.00,CLR,,0.00,0.0,WeatherDisplay:10.37,2013-01-18 06:19:00,
2013-01-18 01:24:00,35.1,28.6,30.04,WNW,298,9.2,9.2,77,0.00,CLR,,0.00,0.0,WeatherDisplay:10.37,2013-01-18 06:24:00,
2013-01-18 01:29:00,35.2,28.4,30.05,WNW,294,10.4,10.4,76,0.00,CLR,,0.00,0.0,WeatherDisplay:10.37,2013-01-18 06:29:00,
2013-01-18 01:34:00,35.3,28.5,30.04,NW,305,9.2,9.2,76,0.00,CLR,,0.00,0.0,WeatherDisplay:10.37,2013-01-18 06:34:00,
2013-01-18 01:39:00,35.3,28.2,30.03,WNW,299,11.5,11.5,75,0.00,CLR,,0.00,0.0,WeatherDisplay:10.37,2013-01-18 06:39:00,
2013-01-18 01:44:00,35.2,28.1,30.04,WNW,285,11.5,11.5,75,0.00,CLR,,0.00,0.0,WeatherDisplay:10.37,2013-01-18 06:44:00,
2013-01-18 01:49:00,35.0,27.9,30.05,NW,315,9.2,9.2,75,0.00,CLR,,0.00,0.0,WeatherDisplay:10.37,2013-01-18 06:49:00,
2013-01-18 01:54:00,34.8,28.0,30.05,WNW,294,8.1,8.1,76,0.00,CLR,,0.00,0.0,WeatherDisplay:10.37,2013-01-18 06:54:00,
2013-01-18 01:59:00,34.8,27.7,30.06,NW,313,5.0,5.0,75,0.00,CLR,,0.00,0.0,WeatherDisplay:10.37,2013-01-18 06:59:00,
2013-01-18 02:04:00,34.5,27.7,30.06,WNW,300,5.0,5.0,76,0.00,CLR,,0.00,0.0,WeatherDisplay:10.37,2013-01-18 07:04:00,
2013-01-18 02:09:00,34.4,27.6,30.06,WNW,290,3.5,3.5,76,0.00,CLR,,0.00,0.0,WeatherDisplay:10.37,2013-01-18 07:09:00,
2013-01-18 02:14:00,34.3,27.8,30.06,WNW,295,4.6,4.6,77,0.00,CLR,,0.00,0.0,WeatherDisplay:10.37,2013-01-18 07:14:00,
2013-01-18 02:19:00,34.1,27.6,30.06,WNW,296,3.5,3.5,77,0.00,CLR,,0.00,0.0,WeatherDisplay:10.37,2013-01-18 07:19:00,
2013-01-18 02:24:00,33.9,27.4,30.06,NW,304,3.5,3.5,77,0.00,CLR,,0.00,0.0,WeatherDisplay:10.37,2013-01-18 07:24:00,
2013-01-18 02:29:00,33.8,29.2,30.06,WNW,296,3.5,3.6,83,0.00,CLR,,0.00,0.0,WeatherDisplay:10.37,2013-01-18 07:29:00,
2013-01-18 02:34:00,33.7,27.6,30.06,WNW,296,4.6,4.6,78,0.00,CLR,,0.00,0.0,WeatherDisplay:10.37,2013-01-18 07:34:00,
2013-01-18 02:39:00,33.6,27.5,30.06,NW,308,9.2,9.2,78,0.00,CLR,,0.00,0.0,WeatherDisplay:10.37,2013-01-18 07:39:00,
2013-01-18 02:44:00,33.7,27.6,30.06,NW,325,6.9,6.9,78,0.00,CLR,,0.00,0.0,WeatherDisplay:10.37,2013-01-18 07:44:00,
2013-01-18 02:49:00,33.8,27.4,30.07,WNW,286,5.8,5.8,77,0.00,CLR,,0.00,0.0,WeatherDisplay:10.37,2013-01-18 07:49:00,
2013-01-18 02:54:00,33.7,27.3,30.06,WNW,297,6.0,6.0,77,0.00,CLR,,0.00,0.0,WeatherDisplay:10.37,2013-01-18 07:54:00,
2013-01-18 02:59:00,33.7,27.3,30.06,NW,317,8.1,8.1,77,0.00,CLR,,0.00,0.0,WeatherDisplay:10.37,2013-01-18 07:59:00,
2013-01-18 03:04:00,33.8,27.4,30.06,NW,306,10.0,10.0,77,0.00,CLR,,0.00,0.0,WeatherDisplay:10.37,2013-01-18 08:04:00,
2013-01-18 03:09:00,34.0,27.5,30.06,NW,317,11.5,11.5,77,0.00,CLR,,0.00,0.0,WeatherDisplay:10.37,2013-01-18 08:09:00,
2013-01-18 03:14:00,34.3,27.5,30.07,WNW,290,10.4,10.4,76,0.00,CLR,,0.00,0.0,WeatherDisplay:10.37,2013-01-18 08:14:00,
2013-01-18 03:19:00,34.4,27.3,30.07,NW,313,7.0,7.0,75,0.00,CLR,,0.00,0.0,WeatherDisplay:10.37,2013-01-18 08:19:00,
2013-01-18 03:24:00,34.3,27.2,30.07,WNW,300,8.1,8.1,75,0.00,CLR,,0.00,0.0,WeatherDisplay:10.37,2013-01-18 08:24:00,
2013-01-18 03:29:00,34.1,27.0,30.08,WNW,301,8.1,8.1,75,0.00,CLR,,0.00,0.0,WeatherDisplay:10.37,2013-01-18 08:29:00,
2013-01-18 03:34:00,34.2,26.8,30.08,NW,309,9.2,9.2,74,0.00,CLR,,0.00,0.0,WeatherDisplay:10.37,2013-01-18 08:34:00,
2013-01-18 03:39:00,34.2,26.4,30.08,WNW,297,11.5,11.5,73,0.00,CLR,,0.00,0.0,WeatherDisplay:10.37,2013-01-18 08:39:00,
2013-01-18 03:44:00,34.2,26.1,30.08,NW,309,11.5,11.5,72,0.00,CLR,,0.00,0.0,WeatherDisplay:10.37,2013-01-18 08:44:00,
2013-01-18 03:49:00,34.1,25.7,30.08,NW,306,11.5,11.5,71,0.00,CLR,,0.00,0.0,WeatherDisplay:10.37,2013-01-18 08:49:00,
2013-01-18 03:54:00,34.4,25.3,30.09,WNW,298,11.5,11.5,69,0.00,CLR,,0.00,0.0,WeatherDisplay:10.37,2013-01-18 08:54:00,
2013-01-18 03:59:00,34.3,25.2,30.09,WNW,288,9.2,9.2,69,0.00,CLR,,0.00,0.0,WeatherDisplay:10.37,2013-01-18 08:59:00,
2013-01-18 04:04:00,34.1,25.0,30.09,WNW,289,6.9,6.9,69,0.00,CLR,,0.00,0.0,WeatherDisplay:10.37,2013-01-18 09:04:00,
2013-01-18 04:09:00,34.1,24.6,30.09,WNW,298,15.0,15.0,68,0.00,CLR,,0.00,0.0,WeatherDisplay:10.37,2013-01-18 09:09:00,
2013-01-18 04:14:00,34.0,24.5,30.10,NW,304,13.8,13.8,68,0.00,CLR,,0.00,0.0,WeatherDisplay:10.37,2013-01-18 09:14:00,
2013-01-18 04:19:00,34.0,24.5,30.10,WNW,302,21.9,21.9,68,0.00,CLR,,0.00,0.0,WeatherDisplay:10.37,2013-01-18 09:19:00,
2013-01-18 04:24:00,34.1,23.9,30.11,WNW,301,24.2,24.2,66,0.00,CLR,,0.00,0.0,WeatherDisplay:10.37,2013-01-18 09:24:00,
2013-01-18 04:29:00,33.9,23.7,30.11,NW,305,21.9,21.9,66,0.00,CLR,,0.00,0.0,WeatherDisplay:10.37,2013-01-18 09:29:00,
2013-01-18 04:34:00,33.5,23.4,30.11,NW,315,21.9,21.9,66,0.00,CLR,,0.00,0.0,WeatherDisplay:10.37,2013-01-18 09:34:00,
2013-01-18 04:39:00,33.2,23.4,30.11,NW,317,19.6,19.6,67,0.00,CLR,,0.00,0.0,WeatherDisplay:10.37,2013-01-18 09:39:00,
2013-01-18 04:44:00,32.9,23.5,30.12,NW,313,19.0,19.0,68,0.00,CLR,,0.00,0.0,WeatherDisplay:10.37,2013-01-18 09:44:00,
2013-01-18 04:49:00,32.7,23.3,30.12,NW,317,16.1,16.1,68,0.00,CLR,,0.00,0.0,WeatherDisplay:10.37,2013-01-18 09:49:00,
2013-01-18 04:54:00,32.6,23.2,30.13,NW,309,17.0,17.0,68,0.00,CLR,,0.00,0.0,WeatherDisplay:10.37,2013-01-18 09:54:00,
2013-01-18 04:59:00,32.5,23.5,30.14,NNW,333,21.9,21.9,69,0.00,SCT,,0.00,0.0,WeatherDisplay:10.37,2013-01-18 09:59:00,
2013-01-18 05:04:00,32.4,23.4,30.14,WNW,302,21.9,21.9,69,0.00,SCT,,0.00,0.0,WeatherDisplay:10.37,2013-01-18 10:04:00,
2013-01-18 05:09:00,32.3,23.3,30.14,NW,311,20.0,20.0,69,0.00,SCT,,0.00,0.0,WeatherDisplay:10.37,2013-01-18 10:09:00,
2013-01-18 05:14:00,32.1,23.1,30.14,NW,311,19.6,19.6,69,0.00,SCT,,0.00,0.0,WeatherDisplay:10.37,2013-01-18 10:14:00,
2013-01-18 05:19:00,32.1,23.1,30.15,NW,311,17.3,17.3,69,0.00,SCT,,0.00,0.0,WeatherDisplay:10.37,2013-01-18 10:19:00,
2013-01-18 05:24:00,32.0,22.6,30.16,NW,326,17.3,17.3,68,0.00,SCT,,0.00,0.0,WeatherDisplay:10.37,2013-01-18 10:24:00,
2013-01-18 05:29:00,32.1,22.4,30.16,NW,309,15.0,15.0,67,0.00,SCT,,0.00,0.0,WeatherDisplay:10.37,2013-01-18 10:29:00,
2013-01-18 05:34:00,32.1,22.4,30.17,NW,321,11.5,11.5,67,0.00,SCT,,0.00,0.0,WeatherDisplay:10.37,2013-01-18 10:34:00,
2013-01-18 05:39:00,32.0,23.7,30.17,NNW,331,12.7,12.7,71,0.00,SCT,,0.00,0.0,WeatherDisplay:10.37,2013-01-18 10:39:00,
2013-01-18 05:44:00,32.1,22.0,30.17,NW,325,15.0,15.0,66,0.00,SCT,,0.00,0.0,WeatherDisplay:10.37,2013-01-18 10:44:00,
2013-01-18 05:49:00,32.1,22.0,30.18,WNW,303,18.4,18.4,66,0.00,SCT,,0.00,0.0,WeatherDisplay:10.37,2013-01-18 10:49:00,
2013-01-18 05:54:00,32.0,20.8,30.19,NW,313,18.4,18.4,63,0.00,SCT,,0.00,0.0,WeatherDisplay:10.37,2013-01-18 10:54:00,
2013-01-18 05:59:00,31.8,20.6,30.19,NW,311,18.4,18.4,63,0.00,OVC,,0.00,0.0,WeatherDisplay:10.37,2013-01-18 10:59:00,
2013-01-18 06:04:00,31.6,20.1,30.20,WNW,292,20.7,20.7,62,0.00,OVC,,0.00,0.0,WeatherDisplay:10.37,2013-01-18 11:04:00,
2013-01-18 06:09:00,31.4,19.9,30.20,NW,304,21.9,21.9,62,0.00,OVC,,0.00,0.0,WeatherDisplay:10.37,2013-01-18 11:09:00,
2013-01-18 06:14:00,31.2,19.3,30.21,NW,316,19.6,19.6,61,0.00,OVC,,0.00,0.0,WeatherDisplay:10.37,2013-01-18 11:14:00,
2013-01-18 06:19:00,31.1,19.6,30.21,NW,311,17.3,17.3,62,0.00,OVC,,0.00,0.0,WeatherDisplay:10.37,2013-01-18 11:19:00,
2013-01-18 06:24:00,30.9,19.4,30.22,NW,317,11.0,11.0,62,0.00,OVC,,0.00,0.0,WeatherDisplay:10.37,2013-01-18 11:24:00,
2013-01-18 06:29:00,30.9,20.9,30.22,NNW,338,11.5,11.5,66,0.00,OVC,,0.00,0.0,WeatherDisplay:10.37,2013-01-18 11:29:00,
2013-01-18 06:34:00,30.6,20.9,30.22,NW,321,12.7,12.7,67,0.00,OVC,,0.00,0.0,WeatherDisplay:10.37,2013-01-18 11:34:00,
2013-01-18 06:39:00,30.3,19.9,30.22,NW,316,12.0,12.0,65,0.00,OVC,,0.00,0.0,WeatherDisplay:10.37,2013-01-18 11:39:00,
2013-01-18 06:44:00,30.3,19.6,30.23,NW,309,12.7,12.7,64,0.00,OVC,,0.00,0.0,WeatherDisplay:10.37,2013-01-18 11:44:00,
2013-01-18 06:49:00,30.2,18.4,30.23,NNW,333,13.8,13.8,61,0.00,OVC,,0.00,0.0,WeatherDisplay:10.37,2013-01-18 11:49:00,
2013-01-18 06:54:00,30.1,17.5,30.23,NW,306,19.6,19.6,59,0.00,OVC,,0.00,0.0,WeatherDisplay:10.37,2013-01-18 11:54:00,
2013-01-18 06:59:00,30.0,17.4,30.24,NW,315,19.6,19.6,59,0.00,SCT,,0.00,0.0,WeatherDisplay:10.37,2013-01-18 11:59:00,
2013-01-18 07:04:00,29.9,16.9,30.25,NW,317,24.2,24.2,58,0.00,SCT,,0.00,0.0,WeatherDisplay:10.37,2013-01-18 12:04:00,
2013-01-18 07:09:00,29.8,16.8,30.25,NW,311,17.3,17.3,58,0.00,SCT,,0.00,0.0,WeatherDisplay:10.37,2013-01-18 12:09:00,
2013-01-18 07:14:00,29.5,18.1,30.26,NNW,341,14.0,14.0,62,0.00,SCT,,0.00,0.0,WeatherDisplay:10.37,2013-01-18 12:14:00,
2013-01-18 07:19:00,29.1,19.2,30.26,NNW,334,15.0,15.0,66,0.00,SCT,,0.00,0.0,WeatherDisplay:10.37,2013-01-18 12:19:00,
2013-01-18 07:24:00,28.9,20.0,30.27,NNW,328,15.0,15.0,69,0.00,SCT,,0.00,0.0,WeatherDisplay:10.37,2013-01-18 12:24:00,
2013-01-18 07:29:00,28.7,20.5,30.28,NW,315,11.5,11.5,71,0.00,SCT,,0.00,0.0,WeatherDisplay:10.37,2013-01-18 12:29:00,
2013-01-18 07:34:00,28.4,20.5,30.28,NNW,336,11.5,11.5,72,0.00,SCT,,0.00,5.0,WeatherDisplay:10.37,2013-01-18 12:34:00,
2013-01-18 07:39:00,28.2,20.7,30.30,NNW,328,12.0,12.0,73,0.00,SCT,,0.00,5.0,WeatherDisplay:10.37,2013-01-18 12:39:00,
2013-01-18 07:44:00,28.0,20.8,30.30,NNW,327,17.3,17.3,74,0.00,SCT,,0.00,0.0,WeatherDisplay:10.37,2013-01-18 12:44:00,
2013-01-18 07:49:00,27.6,21.0,30.31,NW,308,9.2,9.2,76,0.00,SCT,,0.00,5.0,WeatherDisplay:10.37,2013-01-18 12:49:00,
2013-01-18 07:54:00,27.5,21.2,30.31,NNW,333,6.9,6.9,77,0.00,SCT,,0.00,18.0,WeatherDisplay:10.37,2013-01-18 12:54:00,
2013-01-18 07:59:00,27.5,21.2,30.32,NNW,336,7.0,7.0,77,0.00,SCT,,0.00,40.0,WeatherDisplay:10.37,2013-01-18 12:59:00,
2013-01-18 08:04:00,27.5,21.2,30.32,NNW,342,6.0,6.0,77,0.00,SCT,,0.00,39.0,WeatherDisplay:10.37,2013-01-18 13:04:00,
2013-01-18 08:09:00,27.5,21.2,30.32,North,355,4.6,4.6,77,0.00,SCT,,0.00,70.0,WeatherDisplay:10.37,2013-01-18 13:09:00,
2013-01-18 08:14:00,27.6,21.3,30.33,NNW,333,8.0,8.0,77,0.00,SCT,,0.00,130.0,WeatherDisplay:10.37,2013-01-18 13:14:00,
2013-01-18 08:19:00,27.9,21.6,30.33,North,355,4.6,4.6,77,0.00,SCT,,0.00,167.0,WeatherDisplay:10.37,2013-01-18 13:19:00,
2013-01-18 08:24:00,28.0,21.1,30.33,NNW,329,8.1,8.1,75,0.00,SCT,,0.00,95.0,WeatherDisplay:10.37,2013-01-18 13:24:00,
2013-01-18 08:29:00,27.8,20.6,30.34,NNW,336,5.0,5.0,74,0.00,SCT,,0.00,97.0,WeatherDisplay:10.37,2013-01-18 13:29:00,
2013-01-18 08:34:00,27.5,20.6,30.35,NW,321,12.7,12.7,75,0.00,SCT,,0.00,109.0,WeatherDisplay:10.37,2013-01-18 13:34:00,
2013-01-18 08:39:00,27.3,20.1,30.35,NNW,331,12.0,12.0,74,0.00,SCT,,0.00,100.0,WeatherDisplay:10.37,2013-01-18 13:39:00,
2013-01-18 08:44:00,27.1,19.6,30.36,NNW,342,9.2,9.2,73,0.00,SCT,,0.00,113.0,WeatherDisplay:10.37,2013-01-18 13:44:00,
2013-01-18 08:49:00,27.1,19.3,30.36,North,350,6.9,6.9,72,0.00,SCT,,0.00,90.0,WeatherDisplay:10.37,2013-01-18 13:49:00,
2013-01-18 08:54:00,27.1,18.9,30.37,NW,325,12.7,12.7,71,0.00,SCT,,0.00,79.0,WeatherDisplay:10.37,2013-01-18 13:54:00,
2013-01-18 08:59:00,27.1,18.3,30.37,NNW,342,10.4,10.4,69,0.00,BKN,,0.00,72.0,WeatherDisplay:10.37,2013-01-18 13:59:00,
2013-01-18 09:04:00,27.0,18.2,30.37,NNW,327,9.2,9.2,69,0.00,BKN,,0.00,90.0,WeatherDisplay:10.37,2013-01-18 14:04:00,
2013-01-18 09:09:00,27.0,17.8,30.38,NNW,333,11.5,11.5,68,0.00,BKN,,0.00,109.0,WeatherDisplay:10.37,2013-01-18 14:09:00,
2013-01-18 09:14:00,27.2,18.4,30.38,NNW,331,10.0,10.0,69,0.00,BKN,,0.00,216.0,WeatherDisplay:10.37,2013-01-18 14:14:00,
2013-01-18 09:19:00,27.6,18.8,30.39,NW,309,10.4,10.4,69,0.00,BKN,,0.00,281.0,WeatherDisplay:10.37,2013-01-18 14:19:00,
2013-01-18 09:24:00,27.9,19.4,30.39,NW,312,10.4,10.4,70,0.00,BKN,,0.00,278.0,WeatherDisplay:10.37,2013-01-18 14:24:00,
2013-01-18 09:29:00,28.4,19.2,30.39,NW,310,10.4,10.4,68,0.00,BKN,,0.00,320.0,WeatherDisplay:10.37,2013-01-18 14:29:00,
2013-01-18 09:34:00,28.8,19.9,30.39,WNW,296,11.5,11.5,69,0.00,BKN,,0.00,374.0,WeatherDisplay:10.37,2013-01-18 14:34:00,
2013-01-18 09:39:00,29.0,20.1,30.39,NW,323,12.7,12.7,69,0.00,BKN,,0.00,283.0,WeatherDisplay:10.37,2013-01-18 14:39:00,
2013-01-18 09:44:00,28.4,19.5,30.40,NW,323,13.8,13.8,69,0.00,BKN,,0.00,114.0,WeatherDisplay:10.37,2013-01-18 14:44:00,
2013-01-18 09:49:00,27.9,19.4,30.40,NNW,327,11.5,11.5,70,0.00,BKN,,0.00,104.0,WeatherDisplay:10.37,2013-01-18 14:49:00,
2013-01-18 09:54:00,27.5,19.7,30.41,North,349,10.0,10.0,72,0.00,BKN,,0.00,58.0,WeatherDisplay:10.37,2013-01-18 14:54:00,
2013-01-18 09:59:00,27.1,19.6,30.41,North,360,11.5,11.5,73,0.00,CLR,,0.00,90.0,WeatherDisplay:10.37,2013-01-18 14:59:00,
2013-01-18 10:04:00,27.4,20.2,30.41,NW,306,8.1,8.1,74,0.00,CLR,,0.00,388.0,WeatherDisplay:10.37,2013-01-18 15:04:00,
2013-01-18 10:09:00,27.9,20.7,30.42,NE,48,8.1,8.1,74,0.00,CLR,,0.00,397.0,WeatherDisplay:10.37,2013-01-18 15:09:00,
2013-01-18 10:14:00,28.3,20.1,30.42,North,355,4.6,4.6,71,0.00,CLR,,0.00,448.0,WeatherDisplay:10.37,2013-01-18 15:14:00,
2013-01-18 10:19:00,28.7,19.8,30.42,NNW,347,3.5,3.5,69,0.00,CLR,,0.00,545.0,WeatherDisplay:10.37,2013-01-18 15:19:00,
2013-01-18 10:24:00,29.2,20.3,30.42,NNW,342,9.2,9.2,69,0.00,CLR,,0.00,223.0,WeatherDisplay:10.37,2013-01-18 15:24:00,
2013-01-18 10:29:00,29.1,20.2,30.42,NNW,342,6.9,6.9,69,0.00,CLR,,0.00,185.0,WeatherDisplay:10.37,2013-01-18 15:29:00,
2013-01-18 10:34:00,28.5,20.0,30.42,NNW,343,9.0,9.0,70,0.00,CLR,,0.00,125.0,WeatherDisplay:10.37,2013-01-18 15:34:00,
2013-01-18 10:39:00,27.8,18.9,30.42,NW,315,11.5,11.5,69,0.00,CLR,,0.00,67.0,WeatherDisplay:10.37,2013-01-18 15:39:00,
2013-01-18 10:44:00,27.8,18.6,30.42,NW,319,11.5,11.5,68,0.00,CLR,,0.00,429.0,WeatherDisplay:10.37,2013-01-18 15:44:00,
2013-01-18 10:50:00,28.6,19.7,30.43,NNW,345,8.1,8.1,69,0.00,CLR,,0.00,482.0,WeatherDisplay:10.37,2013-01-18 15:50:00,
2013-01-18 10:55:00,28.8,18.9,30.43,WNW,292,12.7,12.7,66,0.00,CLR,,0.00,81.0,WeatherDisplay:10.37,2013-01-18 15:55:00,
2013-01-18 11:00:00,28.0,15.9,30.43,NNW,327,6.9,7.5,60,0.00,CLR,,0.00,113.0,WeatherDisplay:10.37,2013-01-18 16:00:00,
2013-01-18 11:05:00,27.7,14.8,30.43,NW,315,10.4,10.4,58,0.00,CLR,,0.00,109.0,WeatherDisplay:10.37,2013-01-18 16:05:00,
2013-01-18 11:10:00,27.8,14.5,30.44,NW,317,10.0,10.0,57,0.00,CLR,,0.00,178.0,WeatherDisplay:10.37,2013-01-18 16:10:00,
2013-01-18 11:15:00,28.5,15.2,30.43,NW,304,10.4,10.4,57,0.00,CLR,,0.00,575.0,WeatherDisplay:10.37,2013-01-18 16:15:00,
2013-01-18 11:20:00,29.2,15.0,30.43,WNW,297,13.8,13.8,55,0.00,CLR,,0.00,450.0,WeatherDisplay:10.37,2013-01-18 16:20:00,
2013-01-18 11:25:00,29.4,14.8,30.43,WNW,291,13.8,13.8,54,0.00,CLR,,0.00,424.0,WeatherDisplay:10.37,2013-01-18 16:25:00,
2013-01-18 11:30:00,29.2,14.2,30.43,WNW,289,10.4,10.4,53,0.00,CLR,,0.00,417.0,WeatherDisplay:10.37,2013-01-18 16:30:00,
2013-01-18 11:35:00,29.1,14.1,30.43,NNW,329,15.0,15.0,53,0.00,CLR,,0.00,510.0,WeatherDisplay:10.37,2013-01-18 16:35:00,
2013-01-18 11:40:00,29.2,14.2,30.43,NW,313,12.7,12.7,53,0.00,CLR,,0.00,466.0,WeatherDisplay:10.37,2013-01-18 16:40:00,
2013-01-18 11:45:00,29.2,13.3,30.42,NW,311,13.8,13.8,51,0.00,CLR,,0.00,475.0,WeatherDisplay:10.37,2013-01-18 16:45:00,
2013-01-18 11:50:00,29.2,13.7,30.42,NW,315,11.0,11.0,52,0.00,CLR,,0.00,510.0,WeatherDisplay:10.37,2013-01-18 16:50:00,
2013-01-18 11:55:00,29.3,13.4,30.42,WNW,298,12.7,12.7,51,0.00,CLR,,0.00,512.0,WeatherDisplay:10.37,2013-01-18 16:55:00,
2013-01-18 12:00:00,29.4,13.9,30.42,WNW,300,9.2,9.2,52,0.00,CLR,,0.00,513.0,WeatherDisplay:10.37,2013-01-18 17:00:00,
2013-01-18 12:05:00,29.7,14.2,30.42,WNW,300,8.1,8.1,52,0.00,CLR,,0.00,513.0,WeatherDisplay:10.37,2013-01-18 17:05:00,
2013-01-18 12:10:00,29.8,13.4,30.42,NW,312,13.0,13.0,50,0.00,CLR,,0.00,517.0,WeatherDisplay:10.37,2013-01-18 17:10:00,
2013-01-18 12:15:00,29.7,13.8,30.41,WNW,300,12.7,12.7,51,0.00,CLR,,0.00,515.0,WeatherDisplay:10.37,2013-01-18 17:15:00,
2013-01-18 12:20:00,30.0,14.9,30.41,WNW,302,11.5,11.5,53,0.00,CLR,,0.00,515.0,WeatherDisplay:10.37,2013-01-18 17:20:00,
2013-01-18 12:25:00,29.7,12.8,30.42,NW,312,10.4,10.4,49,0.00,CLR,,0.00,515.0,WeatherDisplay:10.37,2013-01-18 17:25:00,
2013-01-18 12:30:00,29.5,13.6,30.42,NW,307,12.0,12.0,51,0.00,CLR,,0.00,512.0,WeatherDisplay:10.37,2013-01-18 17:30:00,
2013-01-18 12:35:00,29.7,13.3,30.42,NW,321,11.5,11.5,50,0.00,CLR,,0.00,513.0,WeatherDisplay:10.37,2013-01-18 17:35:00,
2013-01-18 12:40:00,29.9,13.0,30.41,NW,311,10.4,10.4,49,0.00,CLR,,0.00,510.0,WeatherDisplay:10.37,2013-01-18 17:40:00,
2013-01-18 12:45:00,30.1,13.7,30.41,NW,312,4.6,4.6,50,0.00,CLR,,0.00,510.0,WeatherDisplay:10.37,2013-01-18 17:45:00,
2013-01-18 12:50:00,30.2,13.8,30.41,NW,304,10.4,10.4,50,0.00,CLR,,0.00,506.0,WeatherDisplay:10.37,2013-01-18 17:50:00,
2013-01-18 12:55:00,30.2,13.8,30.41,NW,310,11.5,11.5,50,0.00,CLR,,0.00,504.0,WeatherDisplay:10.37,2013-01-18 17:55:00,
2013-01-18 13:00:00,30.3,13.9,30.41,West,280,5.8,5.8,50,0.00,CLR,,0.00,499.0,WeatherDisplay:10.37,2013-01-18 18:00:00,
2013-01-18 13:05:00,30.5,13.1,30.41,NNW,339,3.5,3.5,48,0.00,CLR,,0.00,492.0,WeatherDisplay:10.37,2013-01-18 18:05:00,
2013-01-18 13:10:00,30.4,13.0,30.41,WNW,300,6.9,6.9,48,0.00,CLR,,0.00,490.0,WeatherDisplay:10.37,2013-01-18 18:10:00,
2013-01-18 13:15:00,30.2,13.3,30.41,West,277,3.5,3.5,49,0.00,CLR,,0.00,485.0,WeatherDisplay:10.37,2013-01-18 18:15:00,
2013-01-18 13:20:00,30.4,13.5,30.41,West,271,3.5,3.5,49,0.00,CLR,,0.00,480.0,WeatherDisplay:10.37,2013-01-18 18:20:00,
2013-01-18 13:25:00,30.6,14.6,30.42,NW,316,8.1,8.1,51,0.00,CLR,,0.00,476.0,WeatherDisplay:10.37,2013-01-18 18:25:00,
2013-01-18 13:30:00,30.8,13.9,30.42,WNW,302,10.4,10.4,49,0.00,CLR,,0.00,471.0,WeatherDisplay:10.37,2013-01-18 18:30:00,
2013-01-18 13:35:00,30.7,13.3,30.42,NW,310,6.9,6.9,48,0.00,CLR,,0.00,468.0,WeatherDisplay:10.37,2013-01-18 18:35:00,
2013-01-18 13:40:00,30.6,13.2,30.42,WNW,298,11.5,11.5,48,0.00,CLR,,0.00,461.0,WeatherDisplay:10.37,2013-01-18 18:40:00,
2013-01-18 13:45:00,30.8,14.3,30.42,WNW,302,10.4,10.4,50,0.00,CLR,,0.00,454.0,WeatherDisplay:10.37,2013-01-18 18:45:00,
2013-01-18 13:50:00,31.0,13.6,30.42,NNW,338,11.5,11.5,48,0.00,CLR,,0.00,446.0,WeatherDisplay:10.37,2013-01-18 18:50:00,
2013-01-18 13:55:00,30.6,12.2,30.42,NW,311,6.9,6.9,46,0.00,CLR,,0.00,438.0,WeatherDisplay:10.37,2013-01-18 18:55:00,
2013-01-18 14:00:00,30.6,13.2,30.42,North,355,5.8,5.8,48,0.00,CLR,,0.00,432.0,WeatherDisplay:10.37,2013-01-18 19:00:00,
2013-01-18 14:05:00,30.7,12.8,30.42,NW,310,9.0,9.0,47,0.00,CLR,,0.00,425.0,WeatherDisplay:10.37,2013-01-18 19:05:00,
2013-01-18 14:10:00,30.8,13.9,30.42,NW,314,11.5,11.5,49,0.00,CLR,,0.00,415.0,WeatherDisplay:10.37,2013-01-18 19:10:00,
2013-01-18 14:15:00,30.5,13.1,30.42,WNW,296,9.2,9.2,48,0.00,CLR,,0.00,406.0,WeatherDisplay:10.37,2013-01-18 19:15:00,
2013-01-18 14:20:00,30.4,12.5,30.42,WNW,299,4.6,4.6,47,0.00,CLR,,0.00,397.0,WeatherDisplay:10.37,2013-01-18 19:20:00,
2013-01-18 14:25:00,30.6,13.2,30.42,WNW,293,7.0,7.0,48,0.00,CLR,,0.00,388.0,WeatherDisplay:10.37,2013-01-18 19:25:00,
2013-01-18 14:30:00,30.6,12.2,30.42,NW,315,9.2,9.2,46,0.00,CLR,,0.00,381.0,WeatherDisplay:10.37,2013-01-18 19:30:00,
2013-01-18 14:35:00,30.6,12.2,30.42,WNW,299,6.9,6.9,46,0.00,CLR,,0.00,373.0,WeatherDisplay:10.37,2013-01-18 19:35:00,
2013-01-18 14:40:00,30.6,12.2,30.42,WNW,302,11.5,11.5,46,0.00,CLR,,0.00,362.0,WeatherDisplay:10.37,2013-01-18 19:40:00,
2013-01-18 14:45:00,30.6,12.2,30.42,NW,325,8.1,8.1,46,0.00,CLR,,0.00,350.0,WeatherDisplay:10.37,2013-01-18 19:45:00,
2013-01-18 14:50:00,30.6,12.7,30.42,West,279,5.8,5.8,47,0.00,CLR,,0.00,338.0,WeatherDisplay:10.37,2013-01-18 19:50:00,
2013-01-18 14:55:00,30.9,11.5,30.42,West,270,8.1,8.1,44,0.00,CLR,,0.00,325.0,WeatherDisplay:10.37,2013-01-18 19:55:00,
2013-01-18 15:00:00,30.7,11.3,30.42,WNW,287,8.1,8.1,44,0.00,CLR,,0.00,313.0,WeatherDisplay:10.37,2013-01-18 20:00:00,
2013-01-18 15:05:00,30.6,11.7,30.42,WNW,294,6.0,6.0,45,0.00,CLR,,0.00,302.0,WeatherDisplay:10.37,2013-01-18 20:05:00,
2013-01-18 15:10:00,30.7,12.3,30.43,SW,233,6.9,6.9,46,0.00,CLR,,0.00,290.0,WeatherDisplay:10.37,2013-01-18 20:10:00,
2013-01-18 15:15:00,31.1,12.7,30.43,WNW,290,5.8,5.8,46,0.00,CLR,,0.00,278.0,WeatherDisplay:10.37,2013-01-18 20:15:00,
2013-01-18 15:20:00,31.1,13.2,30.43,WNW,286,8.1,8.1,47,0.00,CLR,,0.00,265.0,WeatherDisplay:10.37,2013-01-18 20:20:00,
2013-01-18 15:25:00,31.1,13.2,30.44,SW,224,4.6,4.6,47,0.00,CLR,,0.00,251.0,WeatherDisplay:10.37,2013-01-18 20:25:00,
2013-01-18 15:30:00,31.4,13.5,30.44,WSW,245,6.9,6.9,47,0.00,CLR,,0.00,239.0,WeatherDisplay:10.37,2013-01-18 20:30:00,
2013-01-18 15:35:00,31.5,13.6,30.44,WSW,252,7.0,7.0,47,0.00,CLR,,0.00,227.0,WeatherDisplay:10.37,2013-01-18 20:35:00,
2013-01-18 15:40:00,31.5,13.1,30.44,West,273,3.5,3.5,46,0.00,CLR,,0.00,216.0,WeatherDisplay:10.37,2013-01-18 20:40:00,
2013-01-18 15:45:00,31.1,12.7,30.44,WNW,296,6.9,6.9,46,0.00,CLR,,0.00,202.0,WeatherDisplay:10.37,2013-01-18 20:45:00,
2013-01-18 15:50:00,30.8,11.9,30.44,West,275,4.6,4.6,45,0.00,CLR,,0.00,183.0,WeatherDisplay:10.37,2013-01-18 20:50:00,
2013-01-18 15:55:00,30.6,12.2,30.44,West,269,8.1,8.1,46,0.00,CLR,,0.00,174.0,WeatherDisplay:10.37,2013-01-18 20:55:00,
2013-01-18 16:00:00,30.6,11.2,30.44,WSW,238,6.9,6.9,44,0.00,CLR,,0.00,162.0,WeatherDisplay:10.37,2013-01-18 21:00:00,
2013-01-18 16:05:00,30.7,11.3,30.44,SW,233,7.0,7.0,44,0.00,CLR,,0.00,142.0,WeatherDisplay:10.37,2013-01-18 21:05:00,
2013-01-18 16:10:00,30.7,11.3,30.44,WSW,244,3.5,3.5,44,0.00,CLR,,0.00,134.0,WeatherDisplay:10.37,2013-01-18 21:10:00,
2013-01-18 16:15:00,30.7,12.3,30.44,West,276,5.8,5.8,46,0.00,CLR,,0.00,65.0,WeatherDisplay:10.37,2013-01-18 21:15:00,
2013-01-18 16:20:00,30.3,11.5,30.44,WNW,293,3.5,3.5,45,0.00,CLR,,0.00,21.0,WeatherDisplay:10.37,2013-01-18 21:20:00,
2013-01-18 16:25:00,29.8,12.0,30.44,WNW,292,7.0,7.0,47,0.00,CLR,,0.00,19.0,WeatherDisplay:10.37,2013-01-18 21:25:00,
2013-01-18 16:30:00,29.5,12.7,30.44,WSW,257,8.1,8.1,49,0.00,CLR,,0.00,18.0,WeatherDisplay:10.37,2013-01-18 21:30:00,
2013-01-18 16:35:00,29.3,12.9,30.44,WSW,248,3.5,3.5,50,0.00,CLR,,0.00,16.0,WeatherDisplay:10.37,2013-01-18 21:35:00,
2013-01-18 16:40:00,29.3,12.9,30.44,West,265,3.5,3.5,50,0.00,CLR,,0.00,14.0,WeatherDisplay:10.37,2013-01-18 21:40:00,
2013-01-18 16:45:00,29.3,12.9,30.44,WNW,296,5.0,5.0,50,0.00,CLR,,0.00,12.0,WeatherDisplay:10.37,2013-01-18 21:45:00,
2013-01-18 16:50:00,29.1,12.8,30.44,WNW,293,6.9,6.9,50,0.00,CLR,,0.00,11.0,WeatherDisplay:10.37,2013-01-18 21:50:00,
2013-01-18 16:55:00,28.9,12.6,30.43,NW,313,4.6,4.6,50,0.00,CLR,,0.00,9.0,WeatherDisplay:10.37,2013-01-18 21:55:00,
2013-01-18 17:00:00,28.8,12.9,30.43,WNW,283,4.6,4.6,51,0.00,CLR,,0.00,7.0,WeatherDisplay:10.37,2013-01-18 22:00:00,
2013-01-18 17:05:00,28.6,12.7,30.43,WNW,298,2.3,2.3,51,0.00,CLR,,0.00,5.0,WeatherDisplay:10.37,2013-01-18 22:05:00,
2013-01-18 17:10:00,28.6,13.2,30.44,WNW,296,3.5,3.5,52,0.00,CLR,,0.00,0.0,WeatherDisplay:10.37,2013-01-18 22:10:00,
2013-01-18 17:15:00,28.4,13.0,30.44,WNW,286,3.5,3.5,52,0.00,CLR,,0.00,0.0,WeatherDisplay:10.37,2013-01-18 22:15:00,
2013-01-18 17:21:00,28.2,13.2,30.44,NW,305,3.5,3.5,53,0.00,CLR,,0.00,0.0,WeatherDisplay:10.37,2013-01-18 22:21:00,
2013-01-18 17:25:00,28.1,13.6,30.44,West,279,2.3,2.3,54,0.00,CLR,,0.00,0.0,WeatherDisplay:10.37,2013-01-18 22:25:00,
2013-01-18 17:30:00,28.0,13.9,30.44,WNW,298,3.5,3.5,55,0.00,CLR,,0.00,0.0,WeatherDisplay:10.37,2013-01-18 22:30:00,
2013-01-18 17:36:00,27.9,13.8,30.44,West,263,1.1,1.1,55,0.00,CLR,,0.00,0.0,WeatherDisplay:10.37,2013-01-18 22:36:00,
2013-01-18 17:41:00,27.8,13.7,30.44,WNW,301,2.3,2.3,55,0.00,CLR,,0.00,0.0,WeatherDisplay:10.37,2013-01-18 22:41:00,
2013-01-18 17:46:00,27.7,13.6,30.44,West,267,1.1,1.1,55,0.00,CLR,,0.00,0.0,WeatherDisplay:10.37,2013-01-18 22:46:00,
2013-01-18 17:51:00,27.6,14.3,30.44,West,266,2.0,2.0,57,0.00,CLR,,0.00,0.0,WeatherDisplay:10.37,2013-01-18 22:51:00,
2013-01-18 17:56:00,27.5,13.8,30.45,SW,229,2.3,2.3,56,0.00,CLR,,0.00,0.0,WeatherDisplay:10.37,2013-01-18 22:56:00,
2013-01-18 18:01:00,27.4,16.4,30.45,SSW,196,0.0,0.1,63,0.00,CLR,,0.00,0.0,WeatherDisplay:10.37,2013-01-18 23:01:00,
2013-01-18 18:06:00,27.1,15.0,30.45,SW,215,1.1,1.1,60,0.00,CLR,,0.00,0.0,WeatherDisplay:10.37,2013-01-18 23:06:00,
2013-01-18 18:11:00,26.9,15.6,30.45,SW,215,2.3,2.3,62,0.00,CLR,,0.00,0.0,WeatherDisplay:10.37,2013-01-18 23:11:00,
2013-01-18 18:16:00,26.6,14.9,30.44,SSW,211,1.1,1.1,61,0.00,CLR,,0.00,0.0,WeatherDisplay:10.37,2013-01-18 23:16:00,
2013-01-18 18:21:00,26.3,15.0,30.44,SSW,211,0.0,0.0,62,0.00,CLR,,0.00,0.0,WeatherDisplay:10.37,2013-01-18 23:21:00,
2013-01-18 18:26:00,26.1,15.2,30.44,SSW,211,1.1,1.1,63,0.00,CLR,,0.00,0.0,WeatherDisplay:10.37,2013-01-18 23:26:00,
2013-01-18 18:31:00,26.1,15.2,30.44,SSW,211,0.0,0.0,63,0.00,CLR,,0.00,0.0,WeatherDisplay:10.37,2013-01-18 23:31:00,
2013-01-18 18:36:00,26.0,15.1,30.44,SSW,211,1.1,0.0,63,0.00,CLR,,0.00,0.0,WeatherDisplay:10.37,2013-01-18 23:36:00,
2013-01-18 18:41:00,26.0,15.1,30.44,SSW,211,0.0,0.0,63,0.00,CLR,,0.00,0.0,WeatherDisplay:10.37,2013-01-18 23:41:00,
2013-01-18 18:46:00,26.0,15.5,30.44,SSW,211,0.0,0.0,64,0.00,CLR,,0.00,0.0,WeatherDisplay:10.37,2013-01-18 23:46:00,
2013-01-18 18:51:00,25.8,15.6,30.45,SSW,211,0.0,0.0,65,0.00,CLR,,0.00,0.0,WeatherDisplay:10.37,2013-01-18 23:51:00,
2013-01-18 18:56:00,25.5,15.7,30.45,SSW,211,0.0,0.0,66,0.00,CLR,,0.00,0.0,WeatherDisplay:10.37,2013-01-18 23:56:00,
2013-01-18 19:01:00,25.4,15.6,30.45,SSW,211,0.0,0.0,66,0.00,CLR,,0.00,0.0,WeatherDisplay:10.37,2013-01-19 00:01:00,
2013-01-18 19:06:00,25.4,15.6,30.45,SSW,211,0.0,0.0,66,0.00,CLR,,0.00,0.0,WeatherDisplay:10.37,2013-01-19 00:06:00,
2013-01-18 19:11:00,25.3,15.5,30.44,SSW,211,0.0,0.0,66,0.00,CLR,,0.00,0.0,WeatherDisplay:10.37,2013-01-19 00:11:00,
2013-01-18 19:16:00,25.3,15.5,30.44,SSW,200,1.0,1.0,66,0.00,CLR,,0.00,0.0,WeatherDisplay:10.37,2013-01-19 00:16:00,
2013-01-18 19:21:00,25.5,15.4,30.44,SSW,194,1.1,1.1,65,0.00,CLR,,0.00,0.0,WeatherDisplay:10.37,2013-01-19 00:21:00,
2013-01-18 19:26:00,25.7,15.2,30.44,South,173,0.0,0.0,64,0.00,CLR,,0.00,0.0,WeatherDisplay:10.37,2013-01-19 00:26:00,
2013-01-18 19:31:00,25.8,14.9,30.44,South,173,1.1,1.1,63,0.00,CLR,,0.00,0.0,WeatherDisplay:10.37,2013-01-19 00:31:00,
2013-01-18 19:36:00,25.7,14.5,30.44,South,171,1.1,1.1,62,0.00,CLR,,0.00,0.0,WeatherDisplay:10.37,2013-01-19 00:36:00,
2013-01-18 19:41:00,26.0,14.8,30.44,SSE,148,2.3,2.3,62,0.00,CLR,,0.00,0.0,WeatherDisplay:10.37,2013-01-19 00:41:00,
2013-01-18 19:46:00,26.2,15.3,30.44,SE,141,1.1,1.1,63,0.00,CLR,,0.00,0.0,WeatherDisplay:10.37,2013-01-19 00:46:00,
2013-01-18 19:51:00,26.3,15.0,30.44,SE,141,2.3,2.3,62,0.00,CLR,,0.00,0.0,WeatherDisplay:10.37,2013-01-19 00:51:00,
2013-01-18 19:56:00,26.4,14.8,30.44,SE,146,2.3,2.3,61,0.00,CLR,,0.00,0.0,WeatherDisplay:10.37,2013-01-19 00:56:00,
2013-01-18 20:01:00,26.5,14.9,30.44,SSE,148,2.3,2.3,61,0.00,CLR,,0.00,0.0,WeatherDisplay:10.37,2013-01-19 01:01:00,
2013-01-18 20:06:00,26.5,15.2,30.44,SE,146,2.3,2.3,62,0.00,CLR,,0.00,0.0,WeatherDisplay:10.37,2013-01-19 01:06:00,
2013-01-18 20:11:00,26.5,15.2,30.44,South,169,1.1,1.1,62,0.00,CLR,,0.00,0.0,WeatherDisplay:10.37,2013-01-19 01:11:00,
2013-01-18 20:16:00,26.5,15.2,30.44,SE,146,2.3,2.3,62,0.00,CLR,,0.00,0.0,WeatherDisplay:10.37,2013-01-19 01:16:00,
2013-01-18 20:21:00,26.5,14.9,30.44,SE,130,3.5,3.5,61,0.00,CLR,,0.00,0.0,WeatherDisplay:10.37,2013-01-19 01:21:00,
2013-01-18 20:26:00,26.6,14.9,30.44,SSE,150,2.3,2.3,61,0.00,CLR,,0.00,0.0,WeatherDisplay:10.37,2013-01-19 01:26:00,
2013-01-18 20:31:00,26.6,14.6,30.44,SE,133,4.0,4.0,60,0.00,CLR,,0.00,0.0,WeatherDisplay:10.37,2013-01-19 01:31:00,
2013-01-18 20:36:00,26.7,14.7,30.44,SSE,153,3.5,3.5,60,0.00,CLR,,0.00,0.0,WeatherDisplay:10.37,2013-01-19 01:36:00,
2013-01-18 20:41:00,26.8,14.4,30.43,SE,137,3.5,3.5,59,0.00,CLR,,0.00,0.0,WeatherDisplay:10.37,2013-01-19 01:41:00,
2013-01-18 20:46:00,26.9,14.9,30.43,SE,140,2.3,2.3,60,0.00,CLR,,0.00,0.0,WeatherDisplay:10.37,2013-01-19 01:46:00,
2013-01-18 20:51:00,26.8,14.8,30.43,SSE,153,3.5,3.5,60,0.00,CLR,,0.00,0.0,WeatherDisplay:10.37,2013-01-19 01:51:00,
2013-01-18 20:56:00,26.8,14.8,30.43,SSE,153,4.0,4.0,60,0.00,CLR,,0.00,0.0,WeatherDisplay:10.37,2013-01-19 01:56:00,
2013-01-18 21:01:00,26.8,14.4,30.42,South,170,3.5,3.5,59,0.00,CLR,,0.00,0.0,WeatherDisplay:10.37,2013-01-19 02:01:00,
2013-01-18 21:07:00,27.0,14.2,30.42,SSE,157,5.8,5.8,58,0.00,CLR,,0.00,0.0,WeatherDisplay:10.37,2013-01-19 02:07:00,
2013-01-18 21:12:00,27.1,14.3,30.41,SE,144,4.6,4.6,58,0.00,CLR,,0.00,0.0,WeatherDisplay:10.37,2013-01-19 02:12:00,
2013-01-18 21:17:00,27.2,14.4,30.41,SE,141,3.5,3.5,58,0.00,CLR,,0.00,0.0,WeatherDisplay:10.37,2013-01-19 02:17:00,
2013-01-18 21:22:00,27.3,14.1,30.41,SSE,153,5.8,5.8,57,0.00,CLR,,0.00,0.0,WeatherDisplay:10.37,2013-01-19 02:22:00,
2013-01-18 21:27:00,27.2,14.0,30.41,SSE,159,3.5,3.5,57,0.00,CLR,,0.00,0.0,WeatherDisplay:10.37,2013-01-19 02:27:00,
2013-01-18 21:32:00,27.1,14.3,30.41,SE,136,2.3,2.3,58,0.00,CLR,,0.00,0.0,WeatherDisplay:10.37,2013-01-19 02:32:00,
2013-01-18 21:37:00,27.0,14.2,30.41,SE,144,2.3,2.3,58,0.00,CLR,,0.00,0.0,WeatherDisplay:10.37,2013-01-19 02:37:00,
2013-01-18 21:42:00,26.8,14.8,30.41,SE,130,2.3,2.3,60,0.00,CLR,,0.00,0.0,WeatherDisplay:10.37,2013-01-19 02:42:00,
2013-01-18 21:47:00,26.6,14.6,30.41,SSE,157,2.3,2.3,60,0.00,CLR,,0.00,0.0,WeatherDisplay:10.37,2013-01-19 02:47:00,
2013-01-18 21:52:00,26.5,14.9,30.41,SSE,153,3.5,3.5,61,0.00,CLR,,0.00,0.0,WeatherDisplay:10.37,2013-01-19 02:52:00,
2013-01-18 21:57:00,26.3,14.7,30.41,SSE,148,2.3,2.3,61,0.00,CLR,,0.00,0.0,WeatherDisplay:10.37,2013-01-19 02:57:00,
2013-01-18 22:02:00,26.3,15.0,30.41,SSE,152,3.5,3.5,62,0.00,CLR,,0.00,0.0,WeatherDisplay:10.37,2013-01-19 03:02:00,
2013-01-18 22:07:00,26.3,15.0,30.41,SSE,165,3.5,3.5,62,0.00,CLR,,0.00,0.0,WeatherDisplay:10.37,2013-01-19 03:07:00,
2013-01-18 22:12:00,26.4,15.1,30.41,SSE,149,3.5,3.5,62,0.00,CLR,,0.00,0.0,WeatherDisplay:10.37,2013-01-19 03:12:00,
2013-01-18 22:18:00,26.5,15.2,30.41,SE,145,5.8,5.8,62,0.00,CLR,,0.00,0.0,WeatherDisplay:10.37,2013-01-19 03:18:00,
2013-01-18 22:23:00,26.5,15.2,30.41,SE,146,4.6,4.6,62,0.00,CLR,,0.00,0.0,WeatherDisplay:10.37,2013-01-19 03:23:00,
2013-01-18 22:28:00,26.5,15.2,30.41,SE,143,5.0,5.0,62,0.00,CLR,,0.00,0.0,WeatherDisplay:10.37,2013-01-19 03:28:00,
2013-01-18 22:33:00,26.5,15.2,30.40,SSE,155,5.8,5.8,62,0.00,CLR,,0.00,0.0,WeatherDisplay:10.37,2013-01-19 03:33:00,
2013-01-18 22:38:00,26.6,14.9,30.40,SSE,157,4.6,4.6,61,0.00,CLR,,0.00,0.0,WeatherDisplay:10.37,2013-01-19 03:38:00,
2013-01-18 22:43:00,26.7,15.0,30.40,SSE,160,5.8,5.8,61,0.00,CLR,,0.00,0.0,WeatherDisplay:10.37,2013-01-19 03:43:00,
2013-01-18 22:48:00,26.8,15.1,30.40,SSE,152,4.6,4.6,61,0.00,CLR,,0.00,0.0,WeatherDisplay:10.37,2013-01-19 03:48:00,
2013-01-18 22:53:00,26.9,14.9,30.39,SE,130,6.0,6.0,60,0.00,CLR,,0.00,0.0,WeatherDisplay:10.37,2013-01-19 03:53:00,
2013-01-18 22:58:00,27.0,14.9,30.39,SE,137,4.6,4.6,60,0.00,CLR,,0.00,0.0,WeatherDisplay:10.37,2013-01-19 03:58:00,
2013-01-18 23:03:00,27.1,14.7,30.38,SE,134,4.6,4.6,59,0.00,CLR,,0.00,0.0,WeatherDisplay:10.37,2013-01-19 04:03:00,
2013-01-18 23:08:00,27.3,14.8,30.38,SSE,157,4.6,4.6,59,0.00,CLR,,0.00,0.0,WeatherDisplay:10.37,2013-01-19 04:08:00,
2013-01-18 23:13:00,27.3,14.8,30.38,SSE,153,4.6,4.6,59,0.00,CLR,,0.00,0.0,WeatherDisplay:10.37,2013-01-19 04:13:00,
2013-01-18 23:18:00,27.3,14.8,30.38,South,172,4.6,4.6,59,0.00,CLR,,0.00,0.0,WeatherDisplay:10.37,2013-01-19 04:18:00,
2013-01-18 23:23:00,27.4,14.9,30.38,SE,136,5.8,5.8,59,0.00,CLR,,0.00,0.0,WeatherDisplay:10.37,2013-01-19 04:23:00,
2013-01-18 23:28:00,27.5,15.0,30.38,SSE,153,6.9,6.9,59,0.00,CLR,,0.00,0.0,WeatherDisplay:10.37,2013-01-19 04:28:00,
2013-01-18 23:33:00,27.5,15.4,30.38,SE,144,6.9,6.9,60,0.00,CLR,,0.00,0.0,WeatherDisplay:10.37,2013-01-19 04:33:00,
2013-01-18 23:38:00,27.5,15.4,30.37,SE,135,11.5,11.5,60,0.00,CLR,,0.00,0.0,WeatherDisplay:10.37,2013-01-19 04:38:00,
2013-01-18 23:43:00,27.4,15.7,30.37,SSE,148,5.0,5.0,61,0.00,CLR,,0.00,0.0,WeatherDisplay:10.37,2013-01-19 04:43:00,
2013-01-18 23:48:00,27.4,16.1,30.37,SE,138,7.0,7.0,62,0.00,CLR,,0.00,0.0,WeatherDisplay:10.37,2013-01-19 04:48:00,
2013-01-18 23:53:00,27.4,16.1,30.36,South,169,5.8,5.8,62,0.00,CLR,,0.00,0.0,WeatherDisplay:10.37,2013-01-19 04:53:00,
2013-01-18 23:58:00,27.4,16.4,30.36,SSE,161,5.8,5.8,63,0.00,CLR,,0.00,0.0,WeatherDisplay:10.37,2013-01-19 04:58:00,